Terminal Aerodrome Forecast
Issued by NWS Indianapolis, IN

Home | Current Version | Previous Version | Text Only | Print | Product List | Glossary On
Versions: 1 2 3 4 5 6 7 8 9 10 11 12 13 14 15 16 17 18 19 20 21
000
FTUS43 KIND 281700
TAFIND
TAF
KIND 281720Z 2818/2924 32008KT P6SM OVC015
     FM282200 33006KT P6SM SCT025 BKN180
     FM290300 03004KT P6SM BKN180
     FM291100 07005KT P6SM BKN150=

USA.gov is the U.S. government's official web portal to all federal, state and local government web resources and services.